Time;durP1;ratioP1;P1;durP2;ratioP2;P2;SDS_P1;SDS_P2;PMS_P1;PMS_P2;Temp;Humidity;BMP_temperature;BMP_pressure;BME280_temperature;BME280_humidity;BME280_pressure;Samples;Min_cycle;Max_cycle;Signal;HPM_P1;HPM_P2
2023/03/18 00:00:39;;;;;;;0.28;0.28;;;;;;;18.89;43.56;100477.97;5096265;28;20477;-37
2023/03/18 00:03:05;;;;;;;0.20;0.20;;;;;;;18.89;43.47;100486.22;5115714;28;20077;-37
2023/03/18 00:05:33;;;;;;;0.25;0.25;;;;;;;18.90;43.48;100501.66;5115726;28;20498;-37
2023/03/18 00:08:00;;;;;;;0.20;0.20;;;;;;;18.88;43.44;100499.22;5097779;28;20141;-37
2023/03/18 00:10:25;;;;;;;0.20;0.20;;;;;;;18.88;43.55;100490.94;5096912;28;20792;-37
2023/03/18 00:12:52;;;;;;;0.30;0.30;;;;;;;18.89;43.43;100502.78;5114784;28;20548;-37
2023/03/18 00:15:18;;;;;;;0.30;0.30;;;;;;;18.88;43.66;100504.72;5115552;28;20079;-37
2023/03/18 00:17:45;;;;;;;0.20;0.20;;;;;;;18.89;43.69;100509.13;5109189;27;20097;-37
2023/03/18 00:20:12;;;;;;;0.30;0.30;;;;;;;18.89;43.42;100502.78;5094921;28;20120;-37
2023/03/18 00:22:40;;;;;;;0.30;0.30;;;;;;;18.89;43.57;100503.63;5095125;28;20054;-37
2023/03/18 00:25:07;;;;;;;0.30;0.30;;;;;;;18.88;43.47;100501.16;5075974;28;20453;-37
2023/03/18 00:27:34;;;;;;;0.20;0.20;;;;;;;18.88;43.61;100501.97;5097251;28;20044;-37
2023/03/18 00:30:00;;;;;;;0.30;0.30;;;;;;;18.88;43.74;100492.88;5085656;28;20044;-37
2023/03/18 00:32:26;;;;;;;0.30;0.30;;;;;;;18.89;43.50;100497.28;5115312;28;20044;-37
2023/03/18 00:34:53;;;;;;;0.30;0.30;;;;;;;18.88;43.71;100509.44;5096859;28;20043;-37
2023/03/18 00:37:29;;;;;;;0.30;0.30;;;;;;;18.88;43.71;100506.66;5115244;28;20067;-37
2023/03/18 00:39:57;;;;;;;0.30;0.30;;;;;;;18.88;43.48;100488.19;5114894;28;20078;-37
2023/03/18 00:42:23;;;;;;;0.30;0.30;;;;;;;18.87;43.69;100472.75;5114422;28;20058;-37
2023/03/18 00:44:49;;;;;;;0.30;0.30;;;;;;;18.88;43.56;100484.59;5114974;28;20047;-37
2023/03/18 00:47:15;;;;;;;0.30;0.30;;;;;;;18.88;43.56;100495.63;5114253;28;20103;-37
2023/03/18 00:49:41;;;;;;;0.30;0.30;;;;;;;18.88;43.71;100490.13;5114816;28;20087;-37
2023/03/18 00:52:07;;;;;;;0.20;0.20;;;;;;;18.88;43.26;100481.84;5096602;28;20035;-37
2023/03/18 00:54:34;;;;;;;0.30;0.30;;;;;;;18.89;43.59;100477.97;5114757;27;20096;-36
2023/03/18 00:57:00;;;;;;;0.30;0.30;;;;;;;18.87;43.41;100477.41;5117332;28;20047;-37
2023/03/18 00:59:26;;;;;;;0.30;0.30;;;;;;;18.87;43.70;100481.03;5117989;28;20051;-37
2023/03/18 01:01:52;;;;;;;0.30;0.30;;;;;;;18.87;43.75;100483.78;5118362;28;20049;-37
2023/03/18 01:04:18;;;;;;;0.25;0.25;;;;;;;18.87;43.43;100488.44;5118293;28;20084;-37
2023/03/18 01:06:43;;;;;;;0.20;0.20;;;;;;;18.87;43.61;100511.38;5118337;28;20039;-37
2023/03/18 01:09:10;;;;;;;0.25;0.25;;;;;;;18.87;43.92;100500.34;5118088;28;20542;-37
2023/03/18 01:11:36;;;;;;;0.20;0.20;;;;;;;18.86;43.52;100495.91;5099468;28;20054;-37
2023/03/18 01:14:02;;;;;;;0.20;0.20;;;;;;;18.86;43.70;100490.38;5100058;28;20058;-37
2023/03/18 01:16:28;;;;;;;0.30;0.30;;;;;;;18.87;43.41;100500.34;5116640;28;20035;-37
2023/03/18 01:18:54;;;;;;;0.30;0.30;;;;;;;18.86;43.39;100501.41;5118145;28;20253;-37
2023/03/18 01:21:21;;;;;;;0.30;0.30;;;;;;;18.87;43.53;100500.34;5099894;28;20214;-37
2023/03/18 01:23:46;;;;;;;0.20;0.20;;;;;;;18.87;43.68;100508.59;5099051;28;20075;-37
2023/03/18 01:26:12;;;;;;;0.30;0.30;;;;;;;18.87;43.75;100499.47;5117633;28;20047;-36
2023/03/18 01:28:38;;;;;;;0.20;0.20;;;;;;;18.87;43.76;100505.84;5122017;27;20043;-37
2023/03/18 01:31:04;;;;;;;0.20;0.20;;;;;;;18.87;43.72;100505.84;5099474;28;20051;-37
2023/03/18 01:33:30;;;;;;;0.30;0.30;;;;;;;18.87;43.68;100505.84;5116377;28;20298;-37
2023/03/18 01:36:02;;;;;;;0.20;0.20;;;;;;;18.87;43.71;100502.25;5117379;28;20252;-38
2023/03/18 01:38:29;;;;;;;0.30;0.30;;;;;;;18.87;43.44;100496.72;5099534;28;20043;-37
2023/03/18 01:40:56;;;;;;;0.20;0.20;;;;;;;18.85;43.82;100494.25;5117495;28;20124;-37
2023/03/18 01:43:27;;;;;;;0.20;0.20;;;;;;;18.86;43.43;100490.38;5099390;28;20047;-37
2023/03/18 01:45:54;;;;;;;0.30;0.30;;;;;;;18.86;43.60;100495.09;5117477;28;20059;-37
2023/03/18 01:48:24;;;;;;;0.30;0.30;;;;;;;18.87;43.77;100497.56;5097988;28;20126;-37
2023/03/18 01:50:54;;;;;;;0.30;0.30;;;;;;;18.87;43.54;100496.72;5117972;28;20047;-36
2023/03/18 01:53:21;;;;;;;0.30;0.30;;;;;;;18.88;43.70;100495.63;5117925;28;20120;-37
2023/03/18 01:55:49;;;;;;;0.20;0.20;;;;;;;18.87;43.83;100493.97;5117764;28;20043;-37
2023/03/18 01:58:20;;;;;;;0.20;0.20;;;;;;;18.86;43.63;100482.09;5117521;28;20070;-37
2023/03/18 02:01:00;;;;;;;0.30;0.30;;;;;;;18.86;43.68;100479.34;5098422;28;20040;-37
2023/03/18 02:03:27;;;;;;;0.20;0.20;;;;;;;18.87;43.52;100475.50;5117734;28;20050;-37
2023/03/18 02:05:53;;;;;;;0.30;0.30;;;;;;;18.86;43.69;100478.53;5082330;28;20054;-37
2023/03/18 02:08:19;;;;;;;0.22;0.22;;;;;;;18.86;43.83;100489.56;5098557;28;20043;-37
2023/03/18 02:10:45;;;;;;;0.30;0.30;;;;;;;18.86;43.78;100478.53;5116991;28;20507;-37
2023/03/18 02:13:12;;;;;;;0.20;0.20;;;;;;;18.86;43.81;100481.28;5117251;28;20074;-37
2023/03/18 02:15:44;;;;;;;0.20;0.20;;;;;;;18.86;43.59;100475.78;5099009;28;20487;-36
2023/03/18 02:18:16;;;;;;;0.20;0.20;;;;;;;18.85;43.56;100477.72;5116051;28;20055;-37
2023/03/18 02:20:54;;;;;;;0.30;0.30;;;;;;;18.86;43.92;100479.34;5117507;28;20074;-37
2023/03/18 02:23:40;;;;;;;0.20;0.20;;;;;;;18.85;43.55;100480.47;5098891;28;20046;-37
2023/03/18 02:26:14;;;;;;;0.30;0.30;;;;;;;18.86;43.60;100495.91;5116881;28;20043;-37
2023/03/18 02:28:40;;;;;;;0.30;0.30;;;;;;;18.85;43.56;100479.66;5084450;28;20414;-37
2023/03/18 02:31:10;;;;;;;0.30;0.30;;;;;;;18.86;43.54;100475.78;5061513;28;20093;-37
2023/03/18 02:33:38;;;;;;;0.30;0.30;;;;;;;18.86;43.60;100475.78;5090148;28;20147;-37
2023/03/18 02:36:07;;;;;;;0.20;0.20;;;;;;;18.86;43.60;100470.25;5098256;28;20055;-37
2023/03/18 02:38:33;;;;;;;0.20;0.20;;;;;;;18.85;43.66;100472.19;5098930;28;20054;-37
2023/03/18 02:40:58;;;;;;;0.20;0.20;;;;;;;18.86;43.83;100475.78;5116968;28;20036;-37
2023/03/18 02:43:28;;;;;;;0.30;0.30;;;;;;;18.86;43.72;100482.09;5117325;28;20664;-39
2023/03/18 02:48:36;;;;;;;0.20;0.20;;;;;;;18.86;43.75;100490.38;5173808;27;20132;-36
2023/03/18 02:51:03;;;;;;;0.30;0.30;;;;;;;18.85;43.71;100491.50;5133989;27;20042;-37
2023/03/18 02:53:28;;;;;;;0.22;0.22;;;;;;;18.86;43.87;100495.09;5135214;27;20051;-37
2023/03/18 02:55:54;;;;;;;0.20;0.20;;;;;;;18.85;43.88;100491.50;5134989;27;20072;-37
2023/03/18 02:58:20;;;;;;;0.20;0.20;;;;;;;18.85;43.56;100497.03;5153176;27;20053;-38
2023/03/18 03:00:45;;;;;;;0.30;0.30;;;;;;;18.85;43.73;100496.19;5152449;27;20421;-36
2023/03/18 03:03:11;;;;;;;0.20;0.20;;;;;;;18.85;43.66;100501.72;5153062;27;20038;-37
2023/03/18 03:05:37;;;;;;;0.20;0.20;;;;;;;18.85;43.96;100499.78;5153517;27;20042;-37
2023/03/18 03:08:03;;;;;;;0.30;0.30;;;;;;;18.85;43.63;100505.31;5152506;27;20043;-37
2023/03/18 03:10:29;;;;;;;0.30;0.30;;;;;;;18.85;43.53;100501.72;5130669;27;20511;-37
2023/03/18 03:12:55;;;;;;;0.30;0.30;;;;;;;18.85;43.59;100508.06;5131951;27;20107;-37
2023/03/18 03:15:21;;;;;;;0.22;0.22;;;;;;;18.84;43.86;100502.84;5132628;27;20550;-37
2023/03/18 03:17:48;;;;;;;0.20;0.20;;;;;;;18.86;43.46;100504.19;5139592;27;20047;-37
2023/03/18 03:20:14;;;;;;;0.20;0.20;;;;;;;18.85;43.63;100507.25;5152515;27;20076;-37
2023/03/18 03:22:40;;;;;;;0.30;0.30;;;;;;;18.86;43.76;100514.41;5151934;27;20043;-37
2023/03/18 03:25:08;;;;;;;0.30;0.30;;;;;;;18.85;43.59;100510.81;5132543;27;20054;-36
2023/03/18 03:27:35;;;;;;;0.30;0.30;;;;;;;18.85;43.59;100512.75;5147857;27;20494;-37
2023/03/18 03:30:01;;;;;;;0.30;0.30;;;;;;;18.85;43.87;100507.25;5146368;27;20053;-37
2023/03/18 03:32:27;;;;;;;0.30;0.30;;;;;;;18.85;43.89;100508.06;5101553;27;20039;-37
2023/03/18 03:34:53;;;;;;;0.30;0.30;;;;;;;18.85;43.87;100498.97;5131777;27;20043;-37
2023/03/18 03:37:19;;;;;;;0.22;0.22;;;;;;;18.85;43.60;100515.50;5131786;27;20043;-37
2023/03/18 03:39:44;;;;;;;0.30;0.30;;;;;;;18.85;43.85;100518.28;5109435;28;20473;-37
2023/03/18 03:42:10;;;;;;;0.20;0.20;;;;;;;18.86;43.77;100522.66;5111099;28;20561;-37
2023/03/18 03:44:36;;;;;;;0.30;0.30;;;;;;;18.85;43.84;100524.63;5122576;27;20079;-37
2023/03/18 03:47:02;;;;;;;0.30;0.30;;;;;;;18.85;43.53;100524.63;5131456;27;20065;-37
2023/03/18 03:49:28;;;;;;;0.30;0.30;;;;;;;18.85;43.71;100526.56;5131443;27;20426;-37
2023/03/18 03:51:53;;;;;;;0.30;0.30;;;;;;;18.84;43.61;100531.25;5131527;27;20174;-37
2023/03/18 03:54:19;;;;;;;0.30;0.30;;;;;;;18.84;43.90;100525.72;5130915;27;20127;-37
2023/03/18 03:56:45;;;;;;;0.30;0.30;;;;;;;18.84;43.64;100535.94;5113402;27;20051;-37
2023/03/18 03:59:10;;;;;;;0.30;0.30;;;;;;;18.86;43.70;100536.47;5121242;27;20415;-37
2023/03/18 04:01:36;;;;;;;0.25;0.25;;;;;;;18.85;43.55;100540.34;5117533;28;20043;-37
2023/03/18 04:04:02;;;;;;;0.30;0.30;;;;;;;18.85;43.63;100543.09;5117418;28;20046;-37
2023/03/18 04:06:28;;;;;;;0.25;0.25;;;;;;;18.86;43.83;100553.03;5117855;28;20039;-36
2023/03/18 04:08:54;;;;;;;0.30;0.30;;;;;;;18.85;43.76;100543.09;5081205;28;20067;-37
2023/03/18 04:11:20;;;;;;;0.20;0.20;;;;;;;18.85;43.73;100549.44;5116794;28;20440;-37
2023/03/18 04:13:46;;;;;;;0.30;0.30;;;;;;;18.85;43.61;100546.69;5117464;28;20053;-37
2023/03/18 04:16:13;;;;;;;0.30;0.30;;;;;;;18.86;43.80;100544.75;5117442;28;20039;-37
2023/03/18 04:18:39;;;;;;;0.30;0.30;;;;;;;18.84;43.61;100550.56;5117370;28;20043;-37
2023/03/18 04:21:05;;;;;;;0.30;0.30;;;;;;;18.85;43.63;100548.63;5087540;28;20043;-37
2023/03/18 04:23:32;;;;;;;0.30;0.30;;;;;;;18.85;43.88;100556.91;5097679;28;20353;-37
2023/03/18 04:25:57;;;;;;;0.30;0.30;;;;;;;18.84;43.69;100550.56;5126425;27;20047;-37
2023/03/18 04:28:23;;;;;;;0.30;0.30;;;;;;;18.85;43.64;100560.47;5106570;28;20051;-36
2023/03/18 04:30:49;;;;;;;0.20;0.20;;;;;;;18.84;43.76;100560.78;5116932;27;20050;-37
2023/03/18 04:33:15;;;;;;;0.20;0.20;;;;;;;18.84;43.61;100558.03;5098469;28;20043;-37
2023/03/18 04:35:42;;;;;;;0.20;0.20;;;;;;;18.84;43.91;100558.03;5116353;28;20054;-37
2023/03/18 04:38:08;;;;;;;0.20;0.20;;;;;;;18.85;43.92;100565.19;5116241;28;20042;-37
2023/03/18 04:40:34;;;;;;;0.20;0.20;;;;;;;18.85;43.73;100566.00;5116560;28;20490;-37
2023/03/18 04:42:59;;;;;;;0.20;0.20;;;;;;;18.84;43.74;100569.06;5116623;28;20063;-37
2023/03/18 04:45:25;;;;;;;0.20;0.20;;;;;;;18.84;43.92;100569.88;5097906;28;20099;-37
2023/03/18 04:47:51;;;;;;;0.30;0.30;;;;;;;18.83;43.80;100568.22;5114599;28;20047;-37
2023/03/18 04:50:17;;;;;;;0.30;0.30;;;;;;;18.83;43.79;100573.75;5116737;28;20043;-37
2023/03/18 04:52:43;;;;;;;0.30;0.30;;;;;;;18.84;43.80;100575.41;5116681;28;20625;-37
2023/03/18 04:55:10;;;;;;;0.20;0.20;;;;;;;18.84;43.85;100586.44;5116891;28;20089;-37
2023/03/18 04:57:37;;;;;;;0.20;0.20;;;;;;;18.84;43.95;100586.44;5093803;28;20103;-36
2023/03/18 05:00:05;;;;;;;0.30;0.30;;;;;;;18.85;43.63;100585.31;5107517;28;20039;-37
2023/03/18 05:02:31;;;;;;;0.30;0.30;;;;;;;18.84;43.69;100589.19;5080987;28;20043;-37
2023/03/18 05:04:57;;;;;;;0.30;0.30;;;;;;;18.84;43.96;100591.13;5116531;28;20047;-37
2023/03/18 05:07:22;;;;;;;0.20;0.20;;;;;;;18.85;43.75;100590.00;5116861;28;20045;-37
2023/03/18 05:09:48;;;;;;;0.30;0.30;;;;;;;18.85;43.64;100593.59;5116334;27;20049;-37
2023/03/18 05:12:14;;;;;;;0.28;0.28;;;;;;;18.84;43.77;100586.44;5115906;28;20190;-37
2023/03/18 05:14:41;;;;;;;0.20;0.20;;;;;;;18.83;43.72;100583.97;5098326;28;20043;-37
2023/03/18 05:17:14;;;;;;;0.30;0.30;;;;;;;18.84;43.72;100580.09;5116613;28;20089;-37
2023/03/18 05:19:42;;;;;;;0.30;0.30;;;;;;;18.84;43.78;100591.13;5094270;28;20389;-37
2023/03/18 05:22:09;;;;;;;;;;;;;;;18.84;43.91;100591.13;5097940;28;20514;-37
2023/03/18 05:24:34;;;;;;;0.20;0.20;;;;;;;18.83;44.12;100595.81;5115289;27;19918;-37
2023/03/18 05:27:00;;;;;;;0.30;0.30;;;;;;;18.84;43.70;100599.41;5136440;27;20482;-37
2023/03/18 05:29:26;;;;;;;0.30;0.30;;;;;;;18.83;43.73;100598.59;5115870;28;20065;-37
2023/03/18 05:31:52;;;;;;;0.30;0.30;;;;;;;18.84;43.67;100599.41;5116832;27;20039;-37
2023/03/18 05:34:18;;;;;;;0.30;0.30;;;;;;;18.85;43.79;100588.06;5116279;28;20047;-37
2023/03/18 05:36:44;;;;;;;0.20;0.20;;;;;;;18.83;43.67;100597.75;5115664;28;20039;-37
2023/03/18 05:39:09;;;;;;;0.30;0.30;;;;;;;18.83;43.99;100598.59;5115094;28;20047;-37
2023/03/18 05:41:35;;;;;;;0.30;0.30;;;;;;;18.84;43.99;100593.88;5116424;28;20380;-37
2023/03/18 05:44:01;;;;;;;0.20;0.20;;;;;;;18.84;43.77;100602.97;5116027;28;20067;-37
2023/03/18 05:46:27;;;;;;;0.30;0.30;;;;;;;18.84;44.04;100607.69;5116169;28;20047;-37
2023/03/18 05:48:53;;;;;;;0.30;0.30;;;;;;;18.84;43.70;100599.41;5115197;28;20193;-37
2023/03/18 05:51:19;;;;;;;0.30;0.30;;;;;;;18.84;43.71;100610.44;5116804;28;20399;-37
2023/03/18 05:53:45;;;;;;;0.30;0.30;;;;;;;18.84;43.98;100610.44;5116440;28;20047;-37
2023/03/18 05:56:11;;;;;;;0.20;0.20;;;;;;;18.84;43.94;100610.44;5115920;28;20057;-37
2023/03/18 05:58:37;;;;;;;0.30;0.30;;;;;;;18.84;43.71;100619.53;5115636;28;20440;-37
2023/03/18 06:01:03;;;;;;;0.30;0.30;;;;;;;18.83;43.99;100626.19;5115179;28;20035;-36
2023/03/18 06:03:28;;;;;;;0.30;0.30;;;;;;;18.84;43.81;100627.00;5115398;28;20062;-37
2023/03/18 06:05:54;;;;;;;0.30;0.30;;;;;;;18.84;43.89;100630.56;5115829;28;20043;-37
2023/03/18 06:08:21;;;;;;;0.30;0.30;;;;;;;18.84;43.70;100630.56;5093620;28;20447;-37
2023/03/18 06:10:47;;;;;;;0.30;0.30;;;;;;;18.83;43.80;100636.38;5114121;28;20051;-37
2023/03/18 06:13:12;;;;;;;0.20;0.20;;;;;;;18.83;43.69;100633.63;5115813;28;20047;-37
2023/03/18 06:15:38;;;;;;;0.30;0.30;;;;;;;18.83;43.65;100631.69;5116048;28;20051;-37
2023/03/18 06:18:04;;;;;;;0.30;0.30;;;;;;;18.83;43.72;100628.94;5115647;28;20069;-36
2023/03/18 06:20:31;;;;;;;0.30;0.30;;;;;;;18.83;43.66;100634.44;5115555;28;20240;-37
2023/03/18 06:22:56;;;;;;;0.30;0.30;;;;;;;18.84;43.77;100629.75;5103755;27;20059;-37
2023/03/18 06:25:22;;;;;;;0.30;0.30;;;;;;;18.84;43.93;100632.50;5118975;27;20050;-38
2023/03/18 06:27:49;;;;;;;0.30;0.30;;;;;;;18.83;43.91;100637.22;5073324;28;20442;-37
2023/03/18 06:30:16;;;;;;;0.20;0.20;;;;;;;18.84;43.94;100635.28;5093775;28;20545;-37
2023/03/18 06:32:42;;;;;;;0.30;0.30;;;;;;;18.82;43.75;100635.53;5095639;28;20075;-37
2023/03/18 06:35:09;;;;;;;0.30;0.30;;;;;;;18.84;43.87;100641.59;5094206;28;20050;-37
2023/03/18 06:37:35;;;;;;;0.30;0.30;;;;;;;18.84;43.99;100644.38;5100281;28;20047;-37
2023/03/18 06:40:01;;;;;;;0.30;0.30;;;;;;;18.83;43.81;100645.47;5094587;28;20071;-37
2023/03/18 06:42:27;;;;;;;0.30;0.30;;;;;;;18.84;43.71;100649.06;5092757;28;20415;-37
2023/03/18 06:44:53;;;;;;;0.30;0.30;;;;;;;18.83;43.89;100648.25;5095710;28;20471;-37
2023/03/18 06:47:21;;;;;;;0.20;0.20;;;;;;;18.83;44.04;100656.53;5096981;28;20569;-37
2023/03/18 06:49:48;;;;;;;0.28;0.28;;;;;;;18.83;43.72;100651.00;5114572;28;20454;-37
2023/03/18 06:52:13;;;;;;;0.30;0.30;;;;;;;18.83;43.69;100652.94;5114268;28;20071;-37
2023/03/18 06:54:39;;;;;;;0.30;0.30;;;;;;;18.83;43.75;100647.44;5115953;28;20039;-36
2023/03/18 06:57:05;;;;;;;0.20;0.20;;;;;;;18.84;43.96;100649.88;5113744;28;20494;-37
2023/03/18 06:59:31;;;;;;;0.28;0.28;;;;;;;18.84;43.80;100649.88;5114394;28;20076;-37
2023/03/18 07:01:57;;;;;;;0.30;0.30;;;;;;;18.84;43.79;100647.13;5115079;28;20070;-37
2023/03/18 07:04:22;;;;;;;0.30;0.30;;;;;;;18.84;43.91;100646.31;5115664;28;20409;-37
2023/03/18 07:06:49;;;;;;;0.20;0.20;;;;;;;18.84;43.84;100655.41;5110387;28;20450;-37
2023/03/18 07:09:15;;;;;;;0.30;0.30;;;;;;;18.84;43.79;100654.59;5095432;28;20171;-37
2023/03/18 07:11:41;;;;;;;0.30;0.30;;;;;;;18.84;43.97;100660.09;5114764;28;20050;-37
2023/03/18 07:14:07;;;;;;;0.30;0.30;;;;;;;18.83;43.95;100659.28;5115543;28;20043;-37
2023/03/18 07:16:32;;;;;;;0.30;0.30;;;;;;;18.83;44.08;100663.97;5115161;28;20093;-37
2023/03/18 07:18:59;;;;;;;0.28;0.28;;;;;;;18.84;43.90;100668.38;5114586;28;20047;-37
2023/03/18 07:21:25;;;;;;;0.30;0.30;;;;;;;18.84;44.06;100671.13;5114546;28;20510;-36
2023/03/18 07:23:51;;;;;;;0.30;0.30;;;;;;;18.83;43.96;100669.50;5112948;27;20494;-37
2023/03/18 07:26:17;;;;;;;0.20;0.20;;;;;;;18.83;44.05;100670.31;5126007;27;20506;-37
2023/03/18 07:28:42;;;;;;;0.20;0.20;;;;;;;18.83;44.09;100670.31;5114639;28;20043;-37
2023/03/18 07:31:08;;;;;;;0.28;0.28;;;;;;;18.82;44.09;100668.66;5114881;27;20047;-40
2023/03/18 07:33:34;;;;;;;0.30;0.30;;;;;;;18.84;44.07;100668.38;5115768;27;20051;-37
2023/03/18 07:36:01;;;;;;;0.30;0.30;;;;;;;18.84;44.00;100673.91;5117947;28;20058;-36
2023/03/18 07:38:26;;;;;;;0.30;0.30;;;;;;;18.83;44.09;100675.84;5117483;28;20047;-37
2023/03/18 07:40:52;;;;;;;0.30;0.30;;;;;;;18.84;44.07;100684.94;5117398;28;20055;-37
2023/03/18 07:43:18;;;;;;;0.28;0.28;;;;;;;18.83;44.18;100680.53;5117058;28;20039;-37
2023/03/18 07:45:43;;;;;;;0.30;0.30;;;;;;;18.82;43.88;100676.09;5118538;28;20458;-37
2023/03/18 07:48:09;;;;;;;0.30;0.30;;;;;;;18.82;43.89;100674.16;5117280;28;20050;-37
2023/03/18 07:54:18;;;;;;;0.20;0.20;;;;;;;18.82;44.07;100687.97;5117055;28;20066;-37
2023/03/18 07:56:44;;;;;;;0.30;0.30;;;;;;;18.82;44.09;100690.72;5118065;28;20039;-37
2023/03/18 07:59:11;;;;;;;0.30;0.30;;;;;;;18.83;43.81;100691.56;5116640;28;20454;-37
2023/03/18 08:01:38;;;;;;;0.30;0.30;;;;;;;18.84;43.86;100698.72;5117129;28;20576;-37
2023/03/18 08:04:04;;;;;;;0.30;0.30;;;;;;;18.82;43.80;100695.41;5116902;28;20618;-37
2023/03/18 08:06:31;;;;;;;0.20;0.20;;;;;;;18.83;43.86;100700.66;5110096;27;20138;-37
2023/03/18 08:08:57;;;;;;;0.30;0.30;;;;;;;18.83;44.04;100694.31;5121418;27;20051;-37
2023/03/18 08:11:23;;;;;;;0.20;0.20;;;;;;;18.83;43.97;100702.59;5114547;28;20058;-37
2023/03/18 08:13:49;;;;;;;0.25;0.25;;;;;;;18.84;44.13;100704.25;5096959;28;20055;-36
2023/03/18 08:16:14;;;;;;;0.30;0.30;;;;;;;18.83;43.90;100711.69;5096948;28;20044;-37
2023/03/18 08:18:40;;;;;;;0.30;0.30;;;;;;;18.84;43.99;100713.34;5111008;28;20150;-36
2023/03/18 08:21:08;;;;;;;0.22;0.22;;;;;;;18.83;43.95;100719.97;5117181;28;20039;-37
2023/03/18 08:23:34;;;;;;;0.20;0.20;;;;;;;18.84;43.88;100715.28;5098147;28;20074;-37
2023/03/18 08:26:00;;;;;;;0.20;0.20;;;;;;;18.83;43.87;100722.75;5116931;28;20414;-36
2023/03/18 08:28:26;;;;;;;0.20;0.20;;;;;;;18.83;43.89;100721.91;5116823;28;20051;-37
2023/03/18 08:30:54;;;;;;;0.20;0.20;;;;;;;18.84;43.88;100718.03;5116886;27;20051;-37
2023/03/18 08:33:22;;;;;;;0.20;0.20;;;;;;;18.84;43.96;100726.31;5098502;28;20058;-37
2023/03/18 08:35:48;;;;;;;0.22;0.22;;;;;;;18.83;43.98;100722.75;5114819;28;20048;-37
2023/03/18 08:38:14;;;;;;;0.30;0.30;;;;;;;18.84;43.91;100731.84;5098660;28;20051;-36
2023/03/18 08:40:41;;;;;;;0.30;0.30;;;;;;;18.83;43.88;100721.91;5115266;28;20073;-37
2023/03/18 08:43:07;;;;;;;0.28;0.28;;;;;;;18.84;44.02;100731.84;5115869;28;20384;-37
2023/03/18 08:45:34;;;;;;;0.20;0.20;;;;;;;18.84;44.12;100729.91;5116058;27;20069;-37
2023/03/18 08:48:01;;;;;;;0.20;0.20;;;;;;;18.83;43.77;100732.94;5116257;27;20181;-37
2023/03/18 08:50:28;;;;;;;0.20;0.20;;;;;;;18.83;43.88;100721.91;5116763;28;20143;-37
2023/03/18 08:52:56;;;;;;;0.20;0.20;;;;;;;18.84;43.78;100718.03;5116284;28;20043;-37
2023/03/18 08:55:28;;;;;;;0.20;0.20;;;;;;;18.83;44.06;100719.16;5116876;28;20097;-37
2023/03/18 08:57:54;;;;;;;0.20;0.20;;;;;;;18.82;43.97;100721.06;5082065;28;20506;-37
2023/03/18 09:00:20;;;;;;;0.20;0.20;;;;;;;18.84;43.99;100734.59;5116109;28;20043;-36
2023/03/18 09:02:46;;;;;;;0.30;0.30;;;;;;;18.83;44.12;100725.50;5116041;28;20409;-37
2023/03/18 09:05:12;;;;;;;0.30;0.30;;;;;;;18.80;44.10;100729.63;5096841;27;20078;-37
2023/03/18 09:07:38;;;;;;;0.30;0.30;;;;;;;18.83;43.87;100731.00;5104669;28;20054;-37
2023/03/18 09:10:05;;;;;;;0.30;0.30;;;;;;;18.83;43.87;100730.19;5116811;28;20047;-36
2023/03/18 09:12:31;;;;;;;0.30;0.30;;;;;;;18.83;44.13;100735.72;5115741;28;20043;-36
2023/03/18 09:14:56;;;;;;;0.30;0.30;;;;;;;18.83;43.90;100738.47;5115567;28;20468;-37
2023/03/18 09:17:23;;;;;;;0.30;0.30;;;;;;;18.84;44.13;100740.13;5116041;28;20055;-36
2023/03/18 09:20:10;;;;;;;0.30;0.30;;;;;;;18.82;44.15;100739.56;5095057;28;20705;-37
2023/03/18 09:22:37;;;;;;;0.20;0.20;;;;;;;18.83;44.09;100746.75;5094292;28;20044;-37
2023/03/18 09:25:04;;;;;;;0.20;0.20;;;;;;;18.82;44.20;100743.13;5094997;28;20400;-36
2023/03/18 09:27:29;;;;;;;0.30;0.30;;;;;;;18.83;44.04;100741.22;5099606;28;20051;-37
2023/03/18 09:29:55;;;;;;;0.30;0.30;;;;;;;18.82;44.09;100736.78;5101111;28;20417;-36
2023/03/18 09:32:21;;;;;;;0.28;0.28;;;;;;;18.82;44.01;100734.84;5116550;27;20047;-37
2023/03/18 09:34:47;;;;;;;0.30;0.30;;;;;;;18.83;44.17;100727.44;5116174;28;20063;-37
2023/03/18 09:37:13;;;;;;;0.20;0.20;;;;;;;18.84;43.90;100729.06;5113953;28;20611;-36
2023/03/18 09:39:40;;;;;;;0.30;0.30;;;;;;;18.83;44.17;100719.16;5097677;28;20140;-37
2023/03/18 09:44:59;;;;;;;0.30;0.30;;;;;;;18.83;43.99;100730.19;5174348;27;20119;-36
2023/03/18 09:47:59;;;;;;;0.30;0.30;;;;;;;18.83;43.96;100727.44;5128143;27;20069;-37
2023/03/18 09:50:34;;;;;;;0.20;0.20;;;;;;;18.83;44.17;100732.94;5117280;27;20050;-36
2023/03/18 09:53:20;;;;;;;0.30;0.30;;;;;;;18.83;44.07;100735.72;5138006;27;20131;-37
2023/03/18 09:55:51;;;;;;;0.20;0.20;;;;;;;18.82;43.99;100729.34;5153299;27;20383;-36
2023/03/18 09:58:49;;;;;;;0.20;0.20;;;;;;;18.82;44.22;100726.59;5153434;27;20501;-37
2023/03/18 10:01:15;;;;;;;0.20;0.20;;;;;;;18.83;43.97;100722.75;5121534;27;20533;-36
2023/03/18 10:03:46;;;;;;;0.30;0.30;;;;;;;18.83;43.87;100719.97;5125353;27;20278;-36
2023/03/18 10:06:17;;;;;;;0.20;0.20;;;;;;;18.82;44.07;100714.72;5164161;27;20049;-37
2023/03/18 10:09:08;;;;;;;0.30;0.30;;;;;;;18.82;43.92;100712.78;5135543;27;20070;-36
2023/03/18 10:11:40;;;;;;;0.30;0.30;;;;;;;18.82;43.89;100715.53;5120711;27;20046;-37
2023/03/18 10:14:29;;;;;;;0.30;0.30;;;;;;;18.83;44.17;100713.63;5118089;27;20061;-36
2023/03/18 10:17:11;;;;;;;0.30;0.30;;;;;;;18.83;44.06;100721.91;5138468;27;20069;-36
2023/03/18 10:19:41;;;;;;;0.30;0.30;;;;;;;18.83;44.33;100717.22;5153200;27;20128;-37
2023/03/18 10:22:17;;;;;;;0.30;0.30;;;;;;;18.83;44.27;100724.69;5153723;27;20466;-36
2023/03/18 10:25:05;;;;;;;0.30;0.30;;;;;;;18.84;44.04;100723.56;5151850;27;20127;-37
2023/03/18 10:27:42;;;;;;;0.20;0.20;;;;;;;18.83;43.92;100721.91;5152792;27;20046;-37
2023/03/18 10:33:19;;;;;;;0.30;0.30;;;;;;;18.83;44.17;100716.41;5154285;27;20124;-37
2023/03/18 10:35:50;;;;;;;0.30;0.30;;;;;;;18.82;44.23;100714.72;5153150;27;20178;-37
2023/03/18 10:38:21;;;;;;;0.30;0.30;;;;;;;18.82;44.03;100720.25;5153314;27;20204;-36
2023/03/18 10:40:48;;;;;;;0.30;0.30;;;;;;;18.81;44.04;100716.66;5153661;27;20421;-36
2023/03/18 10:43:19;;;;;;;0.30;0.30;;;;;;;18.83;43.89;100719.16;5153790;27;20046;-36
2023/03/18 10:45:48;;;;;;;0.20;0.20;;;;;;;18.83;43.92;100710.88;5134744;27;20912;-37
2023/03/18 10:48:19;;;;;;;0.20;0.20;;;;;;;18.83;44.00;100708.94;5139248;27;20486;-36
2023/03/18 10:51:09;;;;;;;0.30;0.30;;;;;;;18.83;44.26;100717.22;5119317;27;20560;-36
2023/03/18 10:53:41;;;;;;;0.30;0.30;;;;;;;18.83;44.04;100716.41;5118079;27;20035;-36
2023/03/18 10:56:09;;;;;;;0.30;0.30;;;;;;;18.83;43.98;100721.91;5141917;27;20057;-37
2023/03/18 10:58:36;;;;;;;;;;;;;;;18.82;43.99;100721.06;5128909;27;20073;-37
2023/03/18 11:01:04;;;;;;;0.30;0.30;;;;;;;18.82;44.16;100721.06;5131549;27;19919;-36
2023/03/18 11:03:51;;;;;;;0.30;0.30;;;;;;;18.83;44.06;100719.16;5143747;27;20479;-36
2023/03/18 11:06:34;;;;;;;0.30;0.30;;;;;;;18.82;44.23;100721.06;5132126;27;20039;-36
2023/03/18 11:09:07;;;;;;;0.30;0.30;;;;;;;18.83;44.09;100727.44;5113370;27;20472;-37
2023/03/18 11:11:33;;;;;;;0.30;0.30;;;;;;;18.82;44.09;100714.72;5131171;27;20128;-37
2023/03/18 11:14:01;;;;;;;0.30;0.30;;;;;;;18.83;44.13;100719.97;5132308;27;20051;-37
2023/03/18 11:16:38;;;;;;;0.28;0.28;;;;;;;18.83;44.04;100717.22;5096992;27;20502;-36
2023/03/18 11:19:13;;;;;;;0.30;0.30;;;;;;;18.82;44.14;100718.31;5114804;27;20659;-36
2023/03/18 11:21:38;;;;;;;0.20;0.20;;;;;;;18.83;44.23;100719.97;5113944;27;20054;-36
2023/03/18 11:24:09;;;;;;;0.40;0.40;;;;;;;18.83;44.24;100731.00;5130928;27;20415;-36
2023/03/18 11:26:55;;;;;;;0.30;0.30;;;;;;;18.83;44.06;100732.94;5130860;27;20058;-36
2023/03/18 11:29:25;;;;;;;0.30;0.30;;;;;;;18.83;44.07;100731.00;5116122;27;20043;-37
2023/03/18 11:31:57;;;;;;;0.30;0.30;;;;;;;18.83;44.30;100728.25;5112559;27;20043;-36
2023/03/18 11:34:25;;;;;;;0.30;0.30;;;;;;;18.82;44.22;100723.81;5129533;27;20498;-36
2023/03/18 11:36:54;;;;;;;0.30;0.30;;;;;;;18.84;44.28;100726.31;5112889;27;20119;-37
2023/03/18 11:39:22;;;;;;;0.30;0.30;;;;;;;18.83;44.25;100719.16;5150901;27;20047;-37
2023/03/18 11:41:48;;;;;;;0.30;0.30;;;;;;;18.82;44.22;100715.53;5133236;27;20050;-37